Time;durP1;ratioP1;P1;durP2;ratioP2;P2;SDS_P1;SDS_P2;PMS_P1;PMS_P2;Temp;Humidity;BMP_temperature;BMP_pressure;BME280_temperature;BME280_humidity;BME280_pressure;Samples;Min_cycle;Max_cycle;Signal;HPM_P1;HPM_P2
2020/12/05 00:01:52;;;;;;;30.30;20.97;;;;;;;1.40;100.00;151726.63;4985368;28;20544;-75
2020/12/05 00:04:27;;;;;;;30.60;21.27;;;;;;;1.42;100.00;151731.75;4997831;28;20541;-75
2020/12/05 00:07:03;;;;;;;34.10;21.30;;;;;;;1.43;100.00;151734.34;5003858;28;20499;-76
2020/12/05 00:09:38;;;;;;;30.90;20.77;;;;;;;1.45;100.00;151740.78;5029697;28;20811;-75
2020/12/05 00:12:14;;;;;;;28.87;19.40;;;;;;;1.47;100.00;151744.59;5007551;28;20431;-75
2020/12/05 00:14:49;;;;;;;27.17;19.70;;;;;;;1.53;100.00;151760.03;5018236;28;20451;-75
2020/12/05 00:17:26;;;;;;;25.63;20.47;;;;;;;1.57;100.00;151770.28;5005457;28;20444;-75
2020/12/05 00:20:01;;;;;;;27.13;19.33;;;;;;;1.58;100.00;151772.88;5005061;28;20483;-75
2020/12/05 00:22:36;;;;;;;29.67;20.10;;;;;;;1.59;100.00;151776.72;5017963;28;20546;-75
2020/12/05 00:25:12;;;;;;;30.30;20.43;;;;;;;1.57;100.00;151771.59;5023564;28;20553;-76
2020/12/05 00:27:47;;;;;;;29.03;20.30;;;;;;;1.60;100.00;151778.00;5002689;28;20458;-76
2020/12/05 00:30:28;;;;;;;29.17;21.10;;;;;;;1.60;100.00;151778.00;5027776;28;20807;-75
2020/12/05 00:33:04;;;;;;;28.70;20.67;;;;;;;1.58;100.00;151772.88;5007900;28;21148;-76
2020/12/05 00:35:40;;;;;;;31.67;21.80;;;;;;;1.51;100.00;151754.91;5010107;28;20433;-76
2020/12/05 00:38:15;;;;;;;27.73;19.80;;;;;;;1.55;100.00;151765.16;5027289;28;20466;-75
2020/12/05 00:40:52;;;;;;;27.60;21.37;;;;;;;1.55;100.00;151766.47;5009321;28;20447;-75
2020/12/05 00:43:27;;;;;;;27.30;19.57;;;;;;;1.55;100.00;151766.47;5021211;28;20455;-76
2020/12/05 00:46:04;;;;;;;28.33;18.50;;;;;;;1.53;100.00;151761.34;4982648;28;20480;-75
2020/12/05 00:48:40;;;;;;;27.67;18.57;;;;;;;1.56;100.00;151767.75;4990090;28;20827;-75
2020/12/05 00:51:15;;;;;;;29.63;18.40;;;;;;;1.55;100.00;151766.47;4990137;28;20436;-75
2020/12/05 00:53:54;;;;;;;25.33;17.70;;;;;;;1.58;100.00;151774.19;4991413;28;20452;-75
2020/12/05 00:56:30;;;;;;;26.40;18.77;;;;;;;1.60;100.00;151778.00;5013940;28;21157;-75
2020/12/05 00:59:05;;;;;;;29.00;19.17;;;;;;;1.61;100.00;151781.91;4986429;28;20462;-75
2020/12/05 01:01:41;;;;;;;26.43;18.60;;;;;;;1.60;100.00;151779.31;5009085;28;20797;-75
2020/12/05 01:04:17;;;;;;;26.70;18.80;;;;;;;1.62;100.00;151783.13;5026581;28;20881;-76
2020/12/05 01:06:55;;;;;;;27.50;18.97;;;;;;;1.65;100.00;151790.84;4988275;28;20556;-76
2020/12/05 01:09:30;;;;;;;27.63;18.90;;;;;;;1.68;100.00;151798.56;5024720;28;20503;-76
2020/12/05 01:12:06;;;;;;;28.87;19.37;;;;;;;1.71;100.00;151806.28;5013236;28;20998;-77
2020/12/05 01:14:41;;;;;;;27.87;17.67;;;;;;;1.72;100.00;151810.13;4999693;28;20453;-77
2020/12/05 01:17:16;;;;;;;23.37;18.30;;;;;;;1.74;100.00;151815.31;5004168;28;20453;-76
2020/12/05 01:19:53;;;;;;;27.67;19.80;;;;;;;1.73;100.00;151812.72;5009560;28;20918;-76
2020/12/05 01:22:28;;;;;;;30.90;20.20;;;;;;;1.76;100.00;151819.13;5002381;28;20443;-76
2020/12/05 01:25:03;;;;;;;26.07;19.87;;;;;;;1.80;100.00;151830.69;4996206;28;20476;-76
2020/12/05 01:27:39;;;;;;;25.10;18.27;;;;;;;1.80;100.00;151830.69;4997816;28;20470;-76
2020/12/05 01:30:14;;;;;;;27.23;18.50;;;;;;;1.79;100.00;151828.16;5013153;28;20445;-75
2020/12/05 01:32:50;;;;;;;30.80;18.10;;;;;;;1.82;100.00;151834.56;5005000;28;20450;-76
2020/12/05 01:35:26;;;;;;;27.80;18.43;;;;;;;1.84;100.00;151839.72;4985853;28;20535;-76
2020/12/05 01:38:02;;;;;;;29.53;19.93;;;;;;;1.83;100.00;151837.13;5012361;28;20445;-76
2020/12/05 01:40:37;;;;;;;24.10;17.83;;;;;;;1.82;100.00;151835.88;5000174;28;20445;-76
2020/12/05 01:43:12;;;;;;;27.87;19.07;;;;;;;1.81;100.00;151833.28;4998697;28;20544;-76
2020/12/05 01:45:48;;;;;;;27.97;20.70;;;;;;;1.81;100.00;151833.28;4998341;28;20450;-76
2020/12/05 01:48:27;;;;;;;24.53;17.97;;;;;;;1.82;100.00;151834.56;5014626;28;20467;-76
2020/12/05 01:51:03;;;;;;;26.37;18.70;;;;;;;1.83;100.00;151837.13;4985901;28;20450;-76
2020/12/05 01:53:39;;;;;;;31.30;18.80;;;;;;;1.83;100.00;151838.41;5025722;28;20948;-76
2020/12/05 01:56:14;;;;;;;23.80;18.03;;;;;;;1.84;100.00;151839.72;4994702;28;20473;-76
2020/12/05 01:58:50;;;;;;;27.23;18.10;;;;;;;1.85;100.00;151843.53;5001468;28;20458;-76
2020/12/05 02:01:26;;;;;;;26.00;18.60;;;;;;;1.86;100.00;151844.84;5012162;28;20446;-73
2020/12/05 02:04:03;;;;;;;30.70;18.30;;;;;;;1.84;100.00;151839.72;4992312;28;20454;-76
2020/12/05 02:06:47;;;;;;;24.70;18.13;;;;;;;1.84;100.00;151841.00;4996876;28;20482;-77
2020/12/05 02:09:25;;;;;;;27.27;18.90;;;;;;;1.83;100.00;151838.41;5014553;28;20585;-76
2020/12/05 02:12:03;;;;;;;26.13;18.73;;;;;;;1.82;100.00;151834.56;5006380;28;20449;-76
2020/12/05 02:14:39;;;;;;;25.60;18.27;;;;;;;1.80;100.00;151829.44;5006956;28;20544;-76
2020/12/05 02:17:15;;;;;;;23.90;18.40;;;;;;;1.78;100.00;151825.56;5015189;28;20470;-76
2020/12/05 02:19:52;;;;;;;25.37;18.40;;;;;;;1.79;100.00;151826.84;5009060;28;20487;-76
2020/12/05 02:22:32;;;;;;;18.63;14.70;;;;;;;1.80;100.00;151829.44;5001199;28;20443;-77
2020/12/05 02:25:08;;;;;;;21.17;13.73;;;;;;;1.81;100.00;151833.28;5026138;28;20911;-76
2020/12/05 02:27:47;;;;;;;22.17;15.50;;;;;;;1.81;100.00;151833.28;5027776;28;20461;-76
2020/12/05 02:30:23;;;;;;;21.33;15.17;;;;;;;1.81;100.00;151833.28;4992800;28;20988;-76
2020/12/05 02:32:58;;;;;;;18.67;15.53;;;;;;;1.78;100.00;151824.25;5016606;28;20460;-76
2020/12/05 02:35:34;;;;;;;22.07;16.73;;;;;;;1.74;100.00;151815.31;5027425;28;20445;-77
2020/12/05 02:38:13;;;;;;;22.03;17.00;;;;;;;1.72;100.00;151808.88;5017084;28;20453;-76
2020/12/05 02:40:50;;;;;;;20.20;15.53;;;;;;;1.68;100.00;151798.56;5019341;28;20819;-76
2020/12/05 02:43:26;;;;;;;21.93;15.90;;;;;;;1.66;100.00;151793.44;5021616;28;20806;-76
2020/12/05 02:46:02;;;;;;;21.03;14.60;;;;;;;1.63;100.00;151785.72;5007241;28;20529;-76
2020/12/05 02:48:37;;;;;;;22.93;16.90;;;;;;;1.60;100.00;151779.31;5026673;28;20476;-76
2020/12/05 02:51:13;;;;;;;21.87;14.20;;;;;;;1.59;100.00;151775.47;5005391;28;20472;-77
2020/12/05 02:53:48;;;;;;;20.50;15.10;;;;;;;1.64;100.00;151789.56;5000120;28;20460;-76
2020/12/05 02:56:24;;;;;;;20.17;14.00;;;;;;;1.57;100.00;151770.28;5006901;28;20822;-76
2020/12/05 02:59:00;;;;;;;21.50;15.47;;;;;;;1.56;100.00;151769.00;5025399;28;20764;-76
2020/12/05 03:01:35;;;;;;;18.17;13.07;;;;;;;1.55;100.00;151765.16;5024307;28;20527;-76
2020/12/05 03:04:11;;;;;;;19.57;15.20;;;;;;;1.51;100.00;151754.91;5002171;28;20462;-76
2020/12/05 03:06:46;;;;;;;18.83;13.40;;;;;;;1.47;100.00;151744.59;5024110;28;20963;-76
2020/12/05 03:09:22;;;;;;;18.60;13.40;;;;;;;1.46;100.00;151743.31;4999496;28;20478;-76
2020/12/05 03:11:58;;;;;;;17.00;13.30;;;;;;;1.46;100.00;151742.00;5003601;28;20818;-76
2020/12/05 03:14:33;;;;;;;18.60;13.67;;;;;;;1.44;100.00;151738.19;5002635;28;20477;-76
2020/12/05 03:17:08;;;;;;;16.70;12.67;;;;;;;1.43;100.00;151734.34;5020617;28;20431;-76
2020/12/05 03:19:44;;;;;;;15.13;12.40;;;;;;;1.42;100.00;151731.75;5012599;28;20499;-76
2020/12/05 03:22:19;;;;;;;19.37;14.20;;;;;;;1.40;100.00;151726.63;5016325;28;20433;-76
2020/12/05 03:24:55;;;;;;;16.07;12.40;;;;;;;1.39;100.00;151725.34;5025371;28;20538;-76
2020/12/05 03:27:32;;;;;;;18.70;12.70;;;;;;;1.39;100.00;151724.03;5008566;28;20470;-76
2020/12/05 03:30:07;;;;;;;17.77;13.13;;;;;;;1.38;100.00;151722.75;4987353;28;20428;-76
2020/12/05 03:32:43;;;;;;;14.20;10.43;;;;;;;1.37;100.00;151718.91;4994589;28;20451;-76
2020/12/05 03:35:19;;;;;;;15.13;10.57;;;;;;;1.36;100.00;151716.31;5010940;28;20439;-76
2020/12/05 03:37:55;;;;;;;15.70;12.43;;;;;;;1.39;100.00;151724.03;5028747;28;21241;-76
2020/12/05 03:40:30;;;;;;;16.00;11.57;;;;;;;1.41;100.00;151729.16;5029308;28;20439;-76
2020/12/05 03:43:06;;;;;;;12.13;9.43;;;;;;;1.40;100.00;151727.94;5030295;28;20450;-76
2020/12/05 03:45:41;;;;;;;13.50;10.07;;;;;;;1.42;100.00;151733.06;5016552;28;20435;-76
2020/12/05 03:48:17;;;;;;;15.03;11.13;;;;;;;1.41;100.00;151730.47;5030059;28;20483;-76
2020/12/05 03:50:53;;;;;;;13.47;10.13;;;;;;;1.42;100.00;151731.75;5026960;28;20432;-76
2020/12/05 03:53:29;;;;;;;13.03;9.77;;;;;;;1.36;100.00;151717.63;5030176;28;20453;-76
2020/12/05 03:56:04;;;;;;;14.30;10.87;;;;;;;1.39;100.00;151725.34;5008625;28;20935;-76
2020/12/05 03:58:40;;;;;;;13.93;10.67;;;;;;;1.39;100.00;151724.03;4998896;28;20545;-75
2020/12/05 04:01:16;;;;;;;15.20;10.93;;;;;;;1.39;100.00;151724.03;5033099;28;20442;-76
2020/12/05 04:03:51;;;;;;;12.20;9.43;;;;;;;1.36;100.00;151717.63;5007630;28;20453;-76
2020/12/05 04:06:26;;;;;;;14.73;10.43;;;;;;;1.40;100.00;151726.63;5001377;28;20934;-76
2020/12/05 04:09:05;;;;;;;13.80;10.17;;;;;;;1.40;100.00;151726.63;5028419;28;20444;-76
2020/12/05 04:11:40;;;;;;;15.27;11.63;;;;;;;1.40;100.00;151726.63;4993084;28;20444;-76
2020/12/05 04:14:16;;;;;;;10.27;9.20;;;;;;;1.35;100.00;151713.78;4989546;28;20935;-76
2020/12/05 04:16:52;;;;;;;17.00;10.63;;;;;;;1.40;100.00;151727.94;5029066;28;20441;-76
2020/12/05 04:19:27;;;;;;;14.63;10.40;;;;;;;1.37;100.00;151718.91;5030048;28;20492;-76
2020/12/05 04:22:03;;;;;;;13.17;8.90;;;;;;;1.35;100.00;151713.78;5028968;28;20448;-76
2020/12/05 04:24:38;;;;;;;12.70;9.43;;;;;;;1.38;100.00;151721.50;5022739;28;20456;-76
2020/12/05 04:27:13;;;;;;;12.57;9.43;;;;;;;1.37;100.00;151718.91;5007699;28;20870;-76
2020/12/05 04:29:50;;;;;;;14.17;10.37;;;;;;;1.41;100.00;151729.16;4993999;28;20455;-76
2020/12/05 04:32:25;;;;;;;12.10;8.57;;;;;;;1.40;100.00;151726.63;4992434;28;20455;-76
2020/12/05 04:35:00;;;;;;;12.50;8.97;;;;;;;1.35;100.00;151715.03;5013454;28;20443;-76
2020/12/05 04:37:36;;;;;;;11.43;8.87;;;;;;;1.33;100.00;151708.63;5006816;28;20457;-92
2020/12/05 04:40:11;;;;;;;11.03;8.60;;;;;;;1.34;100.00;151712.50;5032313;28;20541;-93
2020/12/05 04:42:48;;;;;;;12.27;9.47;;;;;;;1.35;100.00;151713.78;4981392;28;20464;-93
2020/12/05 04:45:24;;;;;;;12.47;9.57;;;;;;;1.38;100.00;151721.50;5006471;28;20441;-93
2020/12/05 04:48:02;;;;;;;11.30;9.07;;;;;;;1.39;100.00;151724.03;5025850;28;20468;-93
2020/12/05 04:50:38;;;;;;;10.63;8.70;;;;;;;1.34;100.00;151711.19;4999838;28;20453;-94
2020/12/05 04:53:18;;;;;;;15.30;9.77;;;;;;;1.26;100.00;151690.66;5016078;28;20462;-93
2020/12/05 04:55:58;;;;;;;11.57;9.60;;;;;;;1.22;100.00;151682.94;5019123;28;20414;-94
2020/12/05 04:58:35;;;;;;;13.73;10.73;;;;;;;1.22;100.00;151682.94;5006924;28;20425;-93
2020/12/05 05:01:16;;;;;;;11.67;9.50;;;;;;;1.27;100.00;151693.22;5038905;28;20473;-93
2020/12/05 05:03:55;;;;;;;12.60;10.00;;;;;;;1.29;100.00;151698.38;4997737;28;20441;-93
2020/12/05 05:06:31;;;;;;;12.37;9.90;;;;;;;1.28;100.00;151697.06;4990066;28;20451;-93
2020/12/05 05:09:06;;;;;;;11.53;9.30;;;;;;;1.28;100.00;151697.06;5007942;28;20440;-93
2020/12/05 05:11:54;;;;;;;10.93;9.40;;;;;;;1.29;100.00;151699.66;4996497;28;20438;-93
2020/12/05 05:14:33;;;;;;;11.77;9.77;;;;;;;1.33;100.00;151708.63;4994515;28;20848;-94
2020/12/05 05:17:09;;;;;;;11.80;9.33;;;;;;;1.31;100.00;151704.78;5011932;28;20523;-94
2020/12/05 05:19:45;;;;;;;12.03;9.50;;;;;;;1.28;100.00;151697.06;4979277;28;20445;-94
2020/12/05 05:22:21;;;;;;;11.37;10.10;;;;;;;1.30;100.00;151700.94;4974514;28;20797;-94
2020/12/05 05:25:00;;;;;;;10.20;8.60;;;;;;;1.30;100.00;151700.94;4978673;28;20445;-94
2020/12/05 05:27:37;;;;;;;12.60;9.63;;;;;;;1.29;100.00;151698.38;4979092;28;20984;-94
2020/12/05 05:30:14;;;;;;;12.10;8.97;;;;;;;1.28;100.00;151695.78;4948881;28;20446;-93
2020/12/05 05:32:52;;;;;;;12.90;8.97;;;;;;;1.30;100.00;151702.19;4994928;28;20453;-93
2020/12/05 05:35:37;;;;;;;13.17;10.07;;;;;;;1.36;100.00;151716.31;5011097;28;20447;-93
2020/12/05 05:38:19;;;;;;;11.23;9.23;;;;;;;1.36;100.00;151716.31;4978634;28;20426;-93
2020/12/05 05:40:56;;;;;;;10.03;8.20;;;;;;;1.34;100.00;151711.19;4976448;28;20430;-94
2020/12/05 05:43:31;;;;;;;13.47;10.63;;;;;;;1.34;100.00;151711.19;4979298;28;20426;-94
2020/12/05 05:46:07;;;;;;;14.00;9.73;;;;;;;1.36;100.00;151717.63;5011120;28;20863;-94
2020/12/05 05:48:50;;;;;;;12.63;8.67;;;;;;;1.37;100.00;151718.91;4994173;28;20956;-94
2020/12/05 05:51:46;;;;;;;12.10;9.63;;;;;;;1.38;100.00;151721.50;4978341;28;20525;-92
2020/12/05 05:54:25;;;;;;;10.53;8.57;;;;;;;1.37;100.00;151718.91;4976810;28;20548;-93
2020/12/05 05:57:03;;;;;;;12.30;9.57;;;;;;;1.39;100.00;151725.34;5011129;28;21211;-93
2020/12/05 05:59:40;;;;;;;9.83;8.30;;;;;;;1.39;100.00;151725.34;4995431;28;20496;-93
2020/12/05 06:02:16;;;;;;;11.13;8.73;;;;;;;1.41;100.00;151729.16;4995834;28;20414;-94
2020/12/05 06:04:52;;;;;;;11.20;7.77;;;;;;;1.43;100.00;151734.34;4996446;28;20915;-93
2020/12/05 06:07:29;;;;;;;8.30;7.20;;;;;;;1.43;100.00;151734.34;4995545;28;20540;-93
2020/12/05 06:10:04;;;;;;;8.97;7.23;;;;;;;1.42;100.00;151731.75;4987599;28;20468;-93
2020/12/05 06:12:40;;;;;;;12.30;7.20;;;;;;;1.43;100.00;151734.34;5030359;28;20447;-92
2020/12/05 06:15:16;;;;;;;8.50;7.53;;;;;;;1.42;100.00;151733.06;5029957;28;20451;-93
2020/12/05 06:18:00;;;;;;;10.90;7.50;;;;;;;1.40;100.00;151726.63;5014873;28;20547;-92
2020/12/05 06:20:38;;;;;;;8.20;6.43;;;;;;;1.39;100.00;151725.34;5030029;28;20527;-92
2020/12/05 06:23:20;;;;;;;7.07;6.30;;;;;;;1.38;100.00;151722.75;5029343;28;20448;-76
2020/12/05 06:25:56;;;;;;;7.70;5.93;;;;;;;1.37;100.00;151718.91;4997069;28;20574;-76
2020/12/05 06:28:32;;;;;;;8.67;6.87;;;;;;;1.40;100.00;151726.63;5023031;28;20516;-76
2020/12/05 06:31:07;;;;;;;8.53;7.20;;;;;;;1.40;100.00;151726.63;5011936;28;20535;-76
2020/12/05 06:33:44;;;;;;;7.47;6.33;;;;;;;1.40;100.00;151726.63;5000485;28;20471;-76
2020/12/05 06:36:39;;;;;;;6.87;5.40;;;;;;;1.41;100.00;151729.16;5006844;28;20446;-76
2020/12/05 06:39:17;;;;;;;6.93;6.10;;;;;;;1.40;100.00;151727.94;4993396;28;20967;-76
2020/12/05 06:41:53;;;;;;;7.87;5.50;;;;;;;1.40;100.00;151727.94;5019199;28;20481;-76
2020/12/05 06:44:36;;;;;;;8.53;7.17;;;;;;;1.41;100.00;151729.16;5013182;28;20440;-76
2020/12/05 06:47:23;;;;;;;10.83;5.70;;;;;;;1.40;100.00;151726.63;4994697;28;20452;-76
2020/12/05 06:49:59;;;;;;;6.97;5.80;;;;;;;1.38;100.00;151722.75;5030515;28;20962;-76
2020/12/05 06:52:37;;;;;;;7.97;6.00;;;;;;;1.39;100.00;151725.34;5031127;28;20453;-76
2020/12/05 06:55:17;;;;;;;6.37;5.07;;;;;;;1.42;100.00;151733.06;5030960;28;20535;-76
2020/12/05 06:58:01;;;;;;;7.27;5.10;;;;;;;1.40;100.00;151726.63;5017598;28;20443;-76
2020/12/05 07:00:37;;;;;;;6.60;5.53;;;;;;;1.39;100.00;151725.34;5027075;28;20445;-76
2020/12/05 07:03:24;;;;;;;6.13;5.10;;;;;;;1.41;100.00;151729.16;5011809;28;20441;-76
2020/12/05 07:05:59;;;;;;;5.90;5.30;;;;;;;1.40;100.00;151726.63;5002458;28;20467;-76
2020/12/05 07:08:36;;;;;;;5.80;5.20;;;;;;;1.39;100.00;151724.03;5031766;28;20487;-76
2020/12/05 07:11:16;;;;;;;6.73;5.83;;;;;;;1.35;100.00;151715.03;5000584;28;20467;-76
2020/12/05 07:13:53;;;;;;;5.63;4.90;;;;;;;1.40;100.00;151726.63;5010360;28;20477;-76
2020/12/05 07:16:29;;;;;;;5.80;4.70;;;;;;;1.39;100.00;151725.34;5029113;28;20453;-76
2020/12/05 07:19:05;;;;;;;5.50;4.00;;;;;;;1.38;100.00;151721.50;5017817;28;20468;-76
2020/12/05 07:21:40;;;;;;;6.70;4.97;;;;;;;1.39;100.00;151724.03;5009966;28;20456;-76
2020/12/05 07:24:17;;;;;;;6.20;5.20;;;;;;;1.41;100.00;151729.16;5022478;28;20440;-76
2020/12/05 07:26:52;;;;;;;6.87;5.67;;;;;;;1.38;100.00;151722.75;5017957;28;20446;-76
2020/12/05 07:29:28;;;;;;;5.33;4.83;;;;;;;1.38;100.00;151722.75;5008912;28;20441;-75
2020/12/05 07:32:06;;;;;;;5.43;4.93;;;;;;;1.38;100.00;151722.75;5030580;28;20455;-77
2020/12/05 07:34:42;;;;;;;7.73;4.90;;;;;;;1.38;100.00;151721.50;5023158;28;21122;-76
2020/12/05 07:37:25;;;;;;;4.23;3.73;;;;;;;1.40;100.00;151726.63;5012636;28;20448;-75
2020/12/05 07:40:04;;;;;;;5.30;4.20;;;;;;;1.41;100.00;151730.47;5018011;28;20448;-76
2020/12/05 07:42:41;;;;;;;7.40;4.23;;;;;;;1.42;100.00;151731.75;5041716;28;20448;-76
2020/12/05 07:45:21;;;;;;;5.60;4.33;;;;;;;1.42;100.00;151733.06;5044446;28;20843;-76
2020/12/05 07:47:56;;;;;;;4.27;3.67;;;;;;;1.42;100.00;151731.75;5009886;28;20471;-77
2020/12/05 07:50:33;;;;;;;6.93;4.27;;;;;;;1.41;100.00;151730.47;5047364;28;20546;-76
2020/12/05 07:53:32;;;;;;;4.00;3.63;;;;;;;1.44;100.00;151736.88;4999910;28;20478;-76
2020/12/05 07:56:14;;;;;;;5.80;4.13;;;;;;;1.44;100.00;151738.19;4993835;28;20842;-76
2020/12/05 07:58:51;;;;;;;3.83;3.40;;;;;;;1.46;100.00;151742.00;4999259;28;20526;-76
2020/12/05 08:01:48;;;;;;;6.50;4.20;;;;;;;1.47;100.00;151744.59;5016103;28;20506;-76
2020/12/05 08:04:42;;;;;;;6.70;4.10;;;;;;;1.49;100.00;151749.72;4996329;28;20893;-76
2020/12/05 08:07:35;;;;;;;8.23;6.40;;;;;;;1.50;100.00;151752.31;5030182;28;20441;-76
2020/12/05 08:10:12;;;;;;;15.73;12.23;;;;;;;1.52;100.00;151757.44;5030515;28;20477;-76
2020/12/05 08:13:28;;;;;;;10.60;8.60;;;;;;;1.52;100.00;151757.44;5006193;28;20437;-76
2020/12/05 08:16:06;;;;;;;7.40;5.93;;;;;;;1.53;100.00;151760.03;4985530;28;20447;-76
2020/12/05 08:18:41;;;;;;;5.17;4.67;;;;;;;1.55;100.00;151765.16;5022957;28;20438;-76
2020/12/05 08:21:23;;;;;;;6.17;4.77;;;;;;;1.52;100.00;151758.75;5047257;28;20543;-75
2020/12/05 08:24:09;;;;;;;5.43;4.20;;;;;;;1.55;100.00;151765.16;4998891;28;20539;-76
2020/12/05 08:26:45;;;;;;;4.67;4.03;;;;;;;1.55;100.00;151765.16;5017130;28;20923;-74
2020/12/05 08:29:22;;;;;;;5.00;4.10;;;;;;;1.56;100.00;151767.75;5016673;28;20826;-76
2020/12/05 08:31:59;;;;;;;4.50;3.80;;;;;;;1.59;100.00;151775.47;4982394;28;20436;-76
2020/12/05 08:34:35;;;;;;;4.13;3.50;;;;;;;1.60;100.00;151778.00;5088891;23;20496;-75
2020/12/05 08:37:16;;;;;;;8.43;6.50;;;;;;;1.63;100.00;151785.72;5032473;28;20430;-75
2020/12/05 08:39:52;;;;;;;5.97;5.37;;;;;;;1.65;100.00;151790.84;5013218;28;20790;-75
2020/12/05 08:42:28;;;;;;;5.67;4.90;;;;;;;1.68;100.00;151798.56;5007522;28;20475;-75
2020/12/05 08:45:14;;;;;;;9.27;6.97;;;;;;;1.71;100.00;151806.28;5023394;28;20447;-76
2020/12/05 08:47:52;;;;;;;9.37;7.50;;;;;;;1.72;100.00;151808.88;4994241;28;20481;-76
2020/12/05 08:50:29;;;;;;;11.60;10.40;;;;;;;1.74;100.00;151814.00;5001486;28;20461;-73
2020/12/05 08:53:04;;;;;;;9.40;8.40;;;;;;;1.76;100.00;151819.13;4995804;28;20449;-76
2020/12/05 08:55:45;;;;;;;17.00;9.73;;;;;;;1.81;100.00;151832.00;4994741;28;20931;-76
2020/12/05 08:58:27;;;;;;;9.87;8.90;;;;;;;1.81;100.00;151832.00;5029341;28;20486;-76
2020/12/05 09:01:07;;;;;;;7.33;6.47;;;;;;;1.82;100.00;151834.56;4984399;28;20464;-76
2020/12/05 09:03:44;;;;;;;8.40;7.50;;;;;;;1.84;100.00;151839.72;5012072;28;20526;-76
2020/12/05 09:06:23;;;;;;;8.10;6.17;;;;;;;1.83;100.00;151837.13;4980477;28;20456;-76
2020/12/05 09:08:58;;;;;;;8.37;7.20;;;;;;;1.84;100.00;151839.72;4990527;28;20959;-76
2020/12/05 09:11:33;;;;;;;6.53;5.80;;;;;;;1.89;100.00;151851.25;4991183;28;20813;-76
2020/12/05 09:14:09;;;;;;;8.10;7.13;;;;;;;1.87;100.00;151846.13;4996289;28;20443;-76
2020/12/05 09:16:44;;;;;;;6.60;5.30;;;;;;;1.85;100.00;151843.53;5004148;28;20446;-76
2020/12/05 09:19:23;;;;;;;5.83;4.97;;;;;;;1.86;100.00;151844.84;5009796;28;20456;-76
2020/12/05 09:21:59;;;;;;;6.60;5.80;;;;;;;1.84;100.00;151841.00;5021034;28;20450;-76
2020/12/05 09:24:42;;;;;;;8.93;7.30;;;;;;;1.85;100.00;151842.28;5003649;28;20494;-76
2020/12/05 09:27:17;;;;;;;10.27;6.80;;;;;;;1.79;100.00;151828.16;4995298;28;20445;-76
2020/12/05 09:29:53;;;;;;;10.47;8.10;;;;;;;1.81;100.00;151832.00;5010995;28;20449;-76
2020/12/05 09:32:36;;;;;;;9.83;8.83;;;;;;;1.82;100.00;151835.88;5018207;28;20500;-76
2020/12/05 09:35:25;;;;;;;10.10;7.57;;;;;;;1.82;100.00;151835.88;5015281;28;20474;-76
2020/12/05 09:38:02;;;;;;;13.13;10.93;;;;;;;1.82;100.00;151835.88;4989223;28;20449;-76
2020/12/05 09:40:38;;;;;;;11.17;9.50;;;;;;;1.86;100.00;151844.84;5004965;28;20434;-76
2020/12/05 09:43:13;;;;;;;12.87;9.80;;;;;;;1.88;100.00;151849.97;5026304;28;20521;-75
2020/12/05 09:45:49;;;;;;;15.00;11.50;;;;;;;1.90;100.00;151855.16;5027906;28;20442;-75
2020/12/05 09:48:24;;;;;;;15.53;12.50;;;;;;;1.85;100.00;151842.28;5030537;28;20463;-75
2020/12/05 09:51:01;;;;;;;15.13;12.07;;;;;;;1.88;100.00;151849.97;4999807;28;20835;-75
2020/12/05 09:53:36;;;;;;;14.17;11.80;;;;;;;1.88;100.00;151849.97;5020639;28;20531;-75
2020/12/05 09:56:12;;;;;;;14.80;12.00;;;;;;;1.91;100.00;151857.69;4999926;28;20452;-75
2020/12/05 09:58:47;;;;;;;18.70;13.17;;;;;;;1.96;100.00;151870.53;5012003;28;20797;-75
2020/12/05 10:01:23;;;;;;;16.27;13.20;;;;;;;2.00;100.00;151880.84;5026622;28;20443;-76
2020/12/05 10:03:58;;;;;;;13.93;11.73;;;;;;;2.04;100.00;151891.09;5015255;28;20445;-75
2020/12/05 10:06:35;;;;;;;16.07;13.50;;;;;;;2.03;100.00;151888.56;5017439;28;20439;-76
2020/12/05 10:09:10;;;;;;;15.50;12.90;;;;;;;1.99;100.00;151878.25;5029116;28;20476;-76
2020/12/05 10:11:46;;;;;;;12.77;11.23;;;;;;;1.96;100.00;151870.53;5011073;28;20435;-76
2020/12/05 10:14:21;;;;;;;13.10;11.70;;;;;;;1.97;100.00;151873.13;4992957;28;20444;-75
2020/12/05 10:16:58;;;;;;;14.70;12.30;;;;;;;2.03;100.00;151888.56;5014297;28;20440;-75
2020/12/05 10:19:37;;;;;;;15.13;11.67;;;;;;;2.06;100.00;151896.28;5003647;28;21170;-76
2020/12/05 10:22:13;;;;;;;14.10;11.40;;;;;;;2.05;100.00;151892.41;4999279;28;20440;-75
2020/12/05 10:24:48;;;;;;;14.40;11.83;;;;;;;2.05;100.00;151893.69;4985175;28;21178;-74
2020/12/05 10:27:24;;;;;;;13.80;11.33;;;;;;;2.07;100.00;151898.81;5004108;28;20444;-75
2020/12/05 10:29:59;;;;;;;13.03;11.03;;;;;;;2.16;100.00;151921.97;5030004;28;20437;-75
2020/12/05 10:32:34;;;;;;;16.10;11.37;;;;;;;2.14;100.00;151916.84;5019503;28;20818;-75
2020/12/05 10:35:10;;;;;;;15.07;11.50;;;;;;;2.19;100.00;151929.72;5001516;28;20475;-75
2020/12/05 10:37:46;;;;;;;13.43;11.17;;;;;;;2.12;100.00;151911.69;5011228;28;20432;-75
2020/12/05 10:40:21;;;;;;;15.47;12.67;;;;;;;2.18;100.00;151927.13;5000054;28;20445;-75
2020/12/05 10:42:57;;;;;;;17.93;13.87;;;;;;;2.13;100.00;151914.25;5023583;28;20439;-75
2020/12/05 10:45:32;;;;;;;15.50;12.13;;;;;;;2.25;100.00;151945.09;5010890;28;20439;-75
2020/12/05 10:48:11;;;;;;;15.80;11.40;;;;;;;2.26;100.00;151947.69;4998179;28;20977;-75
2020/12/05 10:50:46;;;;;;;13.80;11.43;;;;;;;2.33;100.00;151965.66;4983994;28;20451;-75
2020/12/05 10:53:23;;;;;;;10.13;8.70;;;;;;;2.31;100.00;151959.25;5003092;28;20462;-75
2020/12/05 10:55:58;;;;;;;10.80;8.63;;;;;;;2.36;100.00;151972.09;5008149;28;20474;-75
2020/12/05 10:58:34;;;;;;;12.30;10.03;;;;;;;2.34;100.00;151968.25;4996600;28;20442;-75
2020/12/05 11:01:12;;;;;;;12.20;10.97;;;;;;;2.22;100.00;151936.13;5011104;28;20444;-76
2020/12/05 11:03:48;;;;;;;12.40;10.53;;;;;;;2.20;100.00;151932.25;4991487;28;20452;-77
2020/12/05 11:06:24;;;;;;;12.77;9.97;;;;;;;2.17;100.00;151924.53;4991161;28;20493;-75
2020/12/05 11:09:01;;;;;;;13.47;10.60;;;;;;;2.19;100.00;151929.72;4999247;28;20476;-75
2020/12/05 11:11:36;;;;;;;12.70;9.70;;;;;;;2.24;100.00;151941.25;4994767;28;20906;-75
2020/12/05 11:14:12;;;;;;;9.77;8.00;;;;;;;2.36;100.00;151973.41;5032991;28;20451;-76
2020/12/05 11:16:47;;;;;;;10.33;8.90;;;;;;;2.40;100.00;151983.72;4977729;28;20990;-76
2020/12/05 11:19:22;;;;;;;14.50;12.27;;;;;;;2.47;100.00;152001.69;4983513;28;20444;-76
2020/12/05 11:21:58;;;;;;;10.70;9.50;;;;;;;2.40;100.00;151983.72;5002647;28;20453;-76
2020/12/05 11:24:34;;;;;;;12.30;10.10;;;;;;;2.38;100.00;151977.28;5010339;28;20555;-76
2020/12/05 11:27:09;;;;;;;11.60;9.90;;;;;;;2.38;100.00;151978.53;4987345;28;20453;-76
2020/12/05 11:29:45;;;;;;;12.50;9.60;;;;;;;2.42;100.00;151988.84;5013357;28;20482;-76
2020/12/05 11:32:20;;;;;;;11.97;9.43;;;;;;;2.43;100.00;151991.44;4990014;28;20441;-76
2020/12/05 11:34:58;;;;;;;10.30;9.20;;;;;;;2.47;100.00;152001.69;5019153;28;20467;-76
2020/12/05 11:37:34;;;;;;;9.03;8.13;;;;;;;2.51;100.00;152009.41;4982058;28;20544;-76
2020/12/05 11:40:11;;;;;;;8.90;7.30;;;;;;;2.54;100.00;152017.16;4997760;28;20433;-76
2020/12/05 11:42:47;;;;;;;9.53;7.70;;;;;;;2.54;100.00;152017.16;4987292;28;20449;-76
2020/12/05 11:45:22;;;;;;;10.93;7.83;;;;;;;2.56;100.00;152023.56;5015711;28;20987;-76
2020/12/05 11:47:57;;;;;;;10.20;7.47;;;;;;;2.60;100.00;152033.84;5013143;28;20476;-76
2020/12/05 11:50:33;;;;;;;9.50;7.83;;;;;;;2.63;100.00;152040.25;4985671;28;20475;-76
2020/12/05 11:53:08;;;;;;;8.90;8.00;;;;;;;2.61;100.00;152035.13;5001532;28;20947;-76
2020/12/05 11:55:44;;;;;;;10.23;7.40;;;;;;;2.62;100.00;152038.97;5012619;28;20438;-76
2020/12/05 11:58:19;;;;;;;9.40;7.17;;;;;;;2.65;100.00;152045.44;5011238;28;20445;-76
2020/12/05 12:00:54;;;;;;;9.53;7.47;;;;;;;2.71;100.00;152060.84;5013124;28;21141;-76